Aérodrome :
LOGIN :

S'inscrire | Disclaimer

   EN    FR    IT 

 










Légende :    VFR   VFR Marginal   IFR   IFR Intensif   IFR Très Intensif
Visi : 
Plafond : 
>= 8 km
>= 3000ft
5 à 8 km
1000 à 3000 ft
1500m à 5 km
500 à 1000 ft
800 à 1500m
200 à 500 ft
< 800m
< 200 ft
Symboles :   Orages  Brouillard  Fortes neiges  Fortes précipitations  Vent > 20 kt
SIGMETs :   Divers  Orages  Givrage  Turbulence  Onde Orograph.  Cendres Volcan.






- Altitude de l'aérodrome : 598 ft
- Code IATA : BQH


EGKB - Biggin Hill

DERNIER METAR :
  • 091920Z 27005KT 240V300 CAVOK M00/M02 Q1008

METARs EXPIRÉS :
  • 091850Z 26005KT CAVOK M00/M02 Q1008
  • 091820Z 26005KT 230V290 CAVOK M01/M02 Q1008
  • 091750Z 26005KT CAVOK M00/M01 Q1008
  • 091720Z 27005KT 240V300 CAVOK M00/M01 Q1008
  • 091650Z 27005KT 9000 NSC M00/M01 Q1007

TAF AMD TAF EGKB
Valide du 09 à 18h jusqu'au 09 à 23h UTC


091816Z 0918/0923 30004KT 9999 SCT018
TEMPO 0918/0923 4000 BR



MET'MAP, la Météo Aéronautique d'un coup d'oeil ! - Copyright ORBIFLY Décembre 2007 - Disclaimer

ORBIFLY MET'MAP TEAM :

Programmation & Développement : Alexandra Zaïnal
Sur une idée originale de : Baudouin d'Aumeries
Soutien technique & logistique : Manuel Goepfert
Assistance : Marc-Olivier Méhu




SOURCES & CREDITS :

   NOAA